sensor_id;sensor_type;location;lat;lon;timestamp;P1;durP1;ratioP1;P2;durP2;ratioP2
31692;SDS011;37436;53.230;6.614;2023-04-28T00:01:21;15.52;;;5.13;;
31692;SDS011;37436;53.230;6.614;2023-04-28T00:03:47;11.40;;;5.93;;
31692;SDS011;37436;53.230;6.614;2023-04-28T00:06:15;11.05;;;5.68;;
31692;SDS011;37436;53.230;6.614;2023-04-28T00:08:41;10.13;;;5.32;;
31692;SDS011;37436;53.230;6.614;2023-04-28T00:11:11;10.80;;;5.65;;
31692;SDS011;37436;53.230;6.614;2023-04-28T00:13:40;14.10;;;5.30;;
31692;SDS011;37436;53.230;6.614;2023-04-28T00:16:06;11.90;;;6.15;;
31692;SDS011;37436;53.230;6.614;2023-04-28T00:18:32;13.90;;;5.45;;
31692;SDS011;37436;53.230;6.614;2023-04-28T00:21:12;12.68;;;5.60;;
31692;SDS011;37436;53.230;6.614;2023-04-28T00:23:38;11.25;;;5.85;;
31692;SDS011;37436;53.230;6.614;2023-04-28T00:26:04;9.38;;;5.95;;
31692;SDS011;37436;53.230;6.614;2023-04-28T00:28:32;14.30;;;6.00;;
31692;SDS011;37436;53.230;6.614;2023-04-28T00:30:58;9.50;;;5.45;;
31692;SDS011;37436;53.230;6.614;2023-04-28T00:33:27;12.93;;;5.57;;
31692;SDS011;37436;53.230;6.614;2023-04-28T00:36:00;15.10;;;5.80;;
31692;SDS011;37436;53.230;6.614;2023-04-28T00:38:26;11.05;;;5.90;;
31692;SDS011;37436;53.230;6.614;2023-04-28T00:40:52;13.43;;;5.78;;
31692;SDS011;37436;53.230;6.614;2023-04-28T00:43:18;9.50;;;4.82;;
31692;SDS011;37436;53.230;6.614;2023-04-28T00:45:45;14.27;;;5.43;;
31692;SDS011;37436;53.230;6.614;2023-04-28T00:48:12;9.98;;;5.53;;
31692;SDS011;37436;53.230;6.614;2023-04-28T00:50:38;10.45;;;5.07;;
31692;SDS011;37436;53.230;6.614;2023-04-28T00:53:04;7.38;;;4.07;;
31692;SDS011;37436;53.230;6.614;2023-04-28T00:55:31;7.20;;;4.78;;
31692;SDS011;37436;53.230;6.614;2023-04-28T00:57:58;11.50;;;6.57;;
31692;SDS011;37436;53.230;6.614;2023-04-28T01:00:24;10.88;;;5.35;;
31692;SDS011;37436;53.230;6.614;2023-04-28T01:02:56;12.57;;;5.45;;
31692;SDS011;37436;53.230;6.614;2023-04-28T01:05:25;11.90;;;5.15;;
31692;SDS011;37436;53.230;6.614;2023-04-28T01:07:53;9.63;;;5.45;;
31692;SDS011;37436;53.230;6.614;2023-04-28T01:10:19;10.60;;;4.28;;
31692;SDS011;37436;53.230;6.614;2023-04-28T01:12:48;13.38;;;5.18;;
31692;SDS011;37436;53.230;6.614;2023-04-28T01:15:16;15.27;;;5.97;;
31692;SDS011;37436;53.230;6.614;2023-04-28T01:17:44;11.00;;;5.55;;
31692;SDS011;37436;53.230;6.614;2023-04-28T01:20:10;10.82;;;4.97;;
31692;SDS011;37436;53.230;6.614;2023-04-28T01:22:38;14.32;;;6.28;;
31692;SDS011;37436;53.230;6.614;2023-04-28T01:25:08;9.82;;;5.13;;
31692;SDS011;37436;53.230;6.614;2023-04-28T01:27:34;9.82;;;5.47;;
31692;SDS011;37436;53.230;6.614;2023-04-28T01:30:00;17.40;;;6.10;;
31692;SDS011;37436;53.230;6.614;2023-04-28T01:32:29;10.38;;;5.68;;
31692;SDS011;37436;53.230;6.614;2023-04-28T01:34:55;10.50;;;5.53;;
31692;SDS011;37436;53.230;6.614;2023-04-28T01:37:21;11.27;;;6.07;;
31692;SDS011;37436;53.230;6.614;2023-04-28T01:39:50;8.63;;;4.93;;
31692;SDS011;37436;53.230;6.614;2023-04-28T01:42:17;12.38;;;5.85;;
31692;SDS011;37436;53.230;6.614;2023-04-28T01:44:49;13.82;;;5.88;;
31692;SDS011;37436;53.230;6.614;2023-04-28T01:47:21;10.68;;;5.90;;
31692;SDS011;37436;53.230;6.614;2023-04-28T01:49:50;12.00;;;5.22;;
31692;SDS011;37436;53.230;6.614;2023-04-28T01:52:16;10.38;;;6.20;;
31692;SDS011;37436;53.230;6.614;2023-04-28T01:54:46;19.55;;;7.32;;
31692;SDS011;37436;53.230;6.614;2023-04-28T01:57:13;16.95;;;7.25;;
31692;SDS011;37436;53.230;6.614;2023-04-28T01:59:39;10.70;;;5.50;;
31692;SDS011;37436;53.230;6.614;2023-04-28T02:02:06;13.05;;;6.22;;
31692;SDS011;37436;53.230;6.614;2023-04-28T02:04:32;13.90;;;6.68;;
31692;SDS011;37436;53.230;6.614;2023-04-28T02:06:59;14.15;;;6.45;;
31692;SDS011;37436;53.230;6.614;2023-04-28T02:09:25;13.15;;;6.60;;
31692;SDS011;37436;53.230;6.614;2023-04-28T02:11:51;13.80;;;6.70;;
31692;SDS011;37436;53.230;6.614;2023-04-28T02:14:30;10.02;;;5.63;;
31692;SDS011;37436;53.230;6.614;2023-04-28T02:16:59;18.85;;;7.60;;
31692;SDS011;37436;53.230;6.614;2023-04-28T02:19:33;17.20;;;7.30;;
31692;SDS011;37436;53.230;6.614;2023-04-28T02:21:59;13.82;;;6.97;;
31692;SDS011;37436;53.230;6.614;2023-04-28T02:24:29;14.98;;;7.10;;
31692;SDS011;37436;53.230;6.614;2023-04-28T02:27:00;19.13;;;8.02;;
31692;SDS011;37436;53.230;6.614;2023-04-28T02:29:29;12.45;;;7.07;;
31692;SDS011;37436;53.230;6.614;2023-04-28T02:32:11;22.17;;;8.70;;
31692;SDS011;37436;53.230;6.614;2023-04-28T02:34:37;17.40;;;8.10;;
31692;SDS011;37436;53.230;6.614;2023-04-28T02:37:03;19.17;;;9.10;;
31692;SDS011;37436;53.230;6.614;2023-04-28T02:39:29;19.95;;;9.30;;
31692;SDS011;37436;53.230;6.614;2023-04-28T02:41:59;21.30;;;10.27;;
31692;SDS011;37436;53.230;6.614;2023-04-28T02:44:32;20.63;;;9.75;;
31692;SDS011;37436;53.230;6.614;2023-04-28T02:47:01;26.10;;;10.73;;
31692;SDS011;37436;53.230;6.614;2023-04-28T02:49:28;20.33;;;8.02;;
31692;SDS011;37436;53.230;6.614;2023-04-28T02:51:56;19.23;;;8.23;;
31692;SDS011;37436;53.230;6.614;2023-04-28T02:54:22;20.92;;;10.23;;
31692;SDS011;37436;53.230;6.614;2023-04-28T02:59:31;20.92;;;9.73;;
31692;SDS011;37436;53.230;6.614;2023-04-28T03:01:58;22.05;;;9.00;;
31692;SDS011;37436;53.230;6.614;2023-04-28T03:04:25;19.88;;;9.02;;
31692;SDS011;37436;53.230;6.614;2023-04-28T03:06:52;23.02;;;10.63;;
31692;SDS011;37436;53.230;6.614;2023-04-28T03:09:18;22.17;;;9.70;;
31692;SDS011;37436;53.230;6.614;2023-04-28T03:11:44;22.52;;;10.70;;
31692;SDS011;37436;53.230;6.614;2023-04-28T03:14:10;24.23;;;9.10;;
31692;SDS011;37436;53.230;6.614;2023-04-28T03:16:49;31.13;;;10.52;;
31692;SDS011;37436;53.230;6.614;2023-04-28T03:19:22;22.95;;;10.32;;
31692;SDS011;37436;53.230;6.614;2023-04-28T03:21:57;26.52;;;11.80;;
31692;SDS011;37436;53.230;6.614;2023-04-28T03:24:25;25.67;;;10.60;;
31692;SDS011;37436;53.230;6.614;2023-04-28T03:27:01;21.50;;;10.00;;
31692;SDS011;37436;53.230;6.614;2023-04-28T03:29:32;28.55;;;10.95;;
31692;SDS011;37436;53.230;6.614;2023-04-28T03:31:58;29.17;;;11.90;;
31692;SDS011;37436;53.230;6.614;2023-04-28T03:34:25;22.25;;;10.68;;
31692;SDS011;37436;53.230;6.614;2023-04-28T03:36:52;32.78;;;12.60;;
31692;SDS011;37436;53.230;6.614;2023-04-28T03:39:25;30.63;;;12.25;;
31692;SDS011;37436;53.230;6.614;2023-04-28T03:41:59;32.10;;;10.65;;
31692;SDS011;37436;53.230;6.614;2023-04-28T03:44:25;30.45;;;12.18;;
31692;SDS011;37436;53.230;6.614;2023-04-28T03:46:51;28.88;;;11.43;;
31692;SDS011;37436;53.230;6.614;2023-04-28T03:49:18;28.33;;;12.50;;
31692;SDS011;37436;53.230;6.614;2023-04-28T03:51:55;29.35;;;10.68;;
31692;SDS011;37436;53.230;6.614;2023-04-28T03:54:21;22.45;;;10.95;;
31692;SDS011;37436;53.230;6.614;2023-04-28T03:56:50;25.23;;;11.10;;
31692;SDS011;37436;53.230;6.614;2023-04-28T03:59:28;26.35;;;11.30;;
31692;SDS011;37436;53.230;6.614;2023-04-28T04:01:57;27.15;;;11.77;;
31692;SDS011;37436;53.230;6.614;2023-04-28T04:04:23;27.75;;;11.98;;
31692;SDS011;37436;53.230;6.614;2023-04-28T04:06:49;26.98;;;12.05;;
31692;SDS011;37436;53.230;6.614;2023-04-28T04:09:16;23.80;;;10.45;;
31692;SDS011;37436;53.230;6.614;2023-04-28T04:11:43;19.02;;;10.10;;
31692;SDS011;37436;53.230;6.614;2023-04-28T04:14:09;30.98;;;12.13;;
31692;SDS011;37436;53.230;6.614;2023-04-28T04:16:35;27.92;;;11.70;;
31692;SDS011;37436;53.230;6.614;2023-04-28T04:19:01;31.20;;;11.70;;
31692;SDS011;37436;53.230;6.614;2023-04-28T04:21:28;27.55;;;10.95;;
31692;SDS011;37436;53.230;6.614;2023-04-28T04:23:55;24.75;;;10.30;;
31692;SDS011;37436;53.230;6.614;2023-04-28T04:26:21;23.83;;;11.23;;
31692;SDS011;37436;53.230;6.614;2023-04-28T04:28:48;22.77;;;11.27;;
31692;SDS011;37436;53.230;6.614;2023-04-28T04:31:17;28.90;;;11.65;;
31692;SDS011;37436;53.230;6.614;2023-04-28T04:33:54;30.13;;;12.35;;
31692;SDS011;37436;53.230;6.614;2023-04-28T04:36:43;25.77;;;11.48;;
31692;SDS011;37436;53.230;6.614;2023-04-28T04:39:11;23.00;;;11.48;;
31692;SDS011;37436;53.230;6.614;2023-04-28T04:41:38;24.05;;;11.15;;
31692;SDS011;37436;53.230;6.614;2023-04-28T04:44:04;22.65;;;11.77;;
31692;SDS011;37436;53.230;6.614;2023-04-28T04:46:30;22.75;;;11.25;;
31692;SDS011;37436;53.230;6.614;2023-04-28T04:48:56;24.17;;;10.48;;
31692;SDS011;37436;53.230;6.614;2023-04-28T04:51:24;32.33;;;11.15;;
31692;SDS011;37436;53.230;6.614;2023-04-28T04:53:53;28.63;;;10.63;;
31692;SDS011;37436;53.230;6.614;2023-04-28T04:56:26;23.00;;;10.73;;
31692;SDS011;37436;53.230;6.614;2023-04-28T04:58:52;23.33;;;10.82;;
31692;SDS011;37436;53.230;6.614;2023-04-28T05:01:18;27.90;;;11.18;;
31692;SDS011;37436;53.230;6.614;2023-04-28T05:03:44;21.63;;;10.70;;
31692;SDS011;37436;53.230;6.614;2023-04-28T05:06:10;19.25;;;9.80;;
31692;SDS011;37436;53.230;6.614;2023-04-28T05:08:45;33.22;;;11.77;;
31692;SDS011;37436;53.230;6.614;2023-04-28T05:11:11;22.63;;;10.07;;
31692;SDS011;37436;53.230;6.614;2023-04-28T05:13:42;21.13;;;9.55;;
31692;SDS011;37436;53.230;6.614;2023-04-28T05:16:29;20.00;;;9.48;;
31692;SDS011;37436;53.230;6.614;2023-04-28T05:18:55;20.27;;;9.75;;
31692;SDS011;37436;53.230;6.614;2023-04-28T05:21:21;21.75;;;10.23;;
31692;SDS011;37436;53.230;6.614;2023-04-28T05:23:47;24.83;;;9.52;;
31692;SDS011;37436;53.230;6.614;2023-04-28T05:26:37;23.50;;;10.68;;
31692;SDS011;37436;53.230;6.614;2023-04-28T05:29:06;21.30;;;9.25;;
31692;SDS011;37436;53.230;6.614;2023-04-28T05:31:32;17.95;;;9.02;;
31692;SDS011;37436;53.230;6.614;2023-04-28T05:33:58;23.20;;;9.32;;
31692;SDS011;37436;53.230;6.614;2023-04-28T05:36:24;19.80;;;9.60;;
31692;SDS011;37436;53.230;6.614;2023-04-28T05:38:57;21.08;;;9.57;;
31692;SDS011;37436;53.230;6.614;2023-04-28T05:41:24;21.77;;;9.95;;
31692;SDS011;37436;53.230;6.614;2023-04-28T05:43:50;25.48;;;10.30;;
31692;SDS011;37436;53.230;6.614;2023-04-28T05:46:16;20.75;;;9.45;;
31692;SDS011;37436;53.230;6.614;2023-04-28T05:48:46;16.85;;;7.78;;
31692;SDS011;37436;53.230;6.614;2023-04-28T05:51:12;18.27;;;8.85;;
31692;SDS011;37436;53.230;6.614;2023-04-28T05:53:53;27.55;;;9.77;;
31692;SDS011;37436;53.230;6.614;2023-04-28T05:56:21;18.27;;;8.35;;
31692;SDS011;37436;53.230;6.614;2023-04-28T05:58:57;24.38;;;8.10;;
31692;SDS011;37436;53.230;6.614;2023-04-28T06:01:33;18.23;;;8.10;;
31692;SDS011;37436;53.230;6.614;2023-04-28T06:04:07;24.50;;;9.30;;
31692;SDS011;37436;53.230;6.614;2023-04-28T06:06:34;27.25;;;9.60;;
31692;SDS011;37436;53.230;6.614;2023-04-28T06:09:01;17.75;;;8.07;;
31692;SDS011;37436;53.230;6.614;2023-04-28T06:11:49;21.65;;;8.60;;
31692;SDS011;37436;53.230;6.614;2023-04-28T06:14:31;19.92;;;8.23;;
31692;SDS011;37436;53.230;6.614;2023-04-28T06:17:05;11.98;;;6.82;;
31692;SDS011;37436;53.230;6.614;2023-04-28T06:19:57;15.05;;;8.20;;
31692;SDS011;37436;53.230;6.614;2023-04-28T06:22:43;17.83;;;8.35;;
31692;SDS011;37436;53.230;6.614;2023-04-28T06:25:16;17.45;;;8.05;;
31692;SDS011;37436;53.230;6.614;2023-04-28T06:28:07;18.40;;;8.75;;
31692;SDS011;37436;53.230;6.614;2023-04-28T06:30:49;17.27;;;7.97;;
31692;SDS011;37436;53.230;6.614;2023-04-28T06:33:29;25.23;;;8.32;;
31692;SDS011;37436;53.230;6.614;2023-04-28T06:36:02;18.42;;;8.75;;
31692;SDS011;37436;53.230;6.614;2023-04-28T06:38:40;16.08;;;8.38;;
31692;SDS011;37436;53.230;6.614;2023-04-28T06:41:20;15.73;;;7.43;;
31692;SDS011;37436;53.230;6.614;2023-04-28T06:43:47;17.77;;;8.32;;
31692;SDS011;37436;53.230;6.614;2023-04-28T06:46:21;20.52;;;8.27;;
31692;SDS011;37436;53.230;6.614;2023-04-28T06:48:56;21.45;;;8.48;;
31692;SDS011;37436;53.230;6.614;2023-04-28T06:51:24;15.98;;;7.50;;
31692;SDS011;37436;53.230;6.614;2023-04-28T06:53:53;21.25;;;8.70;;
31692;SDS011;37436;53.230;6.614;2023-04-28T06:56:22;18.88;;;8.82;;
31692;SDS011;37436;53.230;6.614;2023-04-28T06:58:48;18.70;;;8.98;;
31692;SDS011;37436;53.230;6.614;2023-04-28T07:01:17;15.57;;;7.80;;
31692;SDS011;37436;53.230;6.614;2023-04-28T07:03:50;18.05;;;7.97;;
31692;SDS011;37436;53.230;6.614;2023-04-28T07:06:18;15.90;;;7.80;;
31692;SDS011;37436;53.230;6.614;2023-04-28T07:08:57;19.10;;;8.43;;
31692;SDS011;37436;53.230;6.614;2023-04-28T07:11:24;14.93;;;7.95;;
31692;SDS011;37436;53.230;6.614;2023-04-28T07:13:50;16.38;;;8.70;;
31692;SDS011;37436;53.230;6.614;2023-04-28T07:16:16;13.43;;;8.00;;
31692;SDS011;37436;53.230;6.614;2023-04-28T07:18:46;13.63;;;7.85;;
31692;SDS011;37436;53.230;6.614;2023-04-28T07:21:13;15.77;;;7.47;;
31692;SDS011;37436;53.230;6.614;2023-04-28T07:23:41;19.67;;;8.68;;
31692;SDS011;37436;53.230;6.614;2023-04-28T07:29:01;17.60;;;7.22;;
31692;SDS011;37436;53.230;6.614;2023-04-28T07:31:39;13.43;;;7.60;;
31692;SDS011;37436;53.230;6.614;2023-04-28T07:37:18;18.55;;;8.10;;
31692;SDS011;37436;53.230;6.614;2023-04-28T07:39:45;17.55;;;8.60;;
31692;SDS011;37436;53.230;6.614;2023-04-28T07:42:12;16.77;;;7.90;;
31692;SDS011;37436;53.230;6.614;2023-04-28T07:44:41;17.05;;;8.40;;
31692;SDS011;37436;53.230;6.614;2023-04-28T07:47:08;16.15;;;8.18;;
31692;SDS011;37436;53.230;6.614;2023-04-28T07:49:34;17.92;;;7.07;;
31692;SDS011;37436;53.230;6.614;2023-04-28T07:52:01;18.98;;;8.40;;
31692;SDS011;37436;53.230;6.614;2023-04-28T07:54:27;24.77;;;9.70;;
31692;SDS011;37436;53.230;6.614;2023-04-28T07:57:11;16.95;;;8.05;;
31692;SDS011;37436;53.230;6.614;2023-04-28T07:59:37;17.15;;;8.20;;
31692;SDS011;37436;53.230;6.614;2023-04-28T08:02:24;18.15;;;8.38;;
31692;SDS011;37436;53.230;6.614;2023-04-28T08:05:00;18.55;;;8.00;;
31692;SDS011;37436;53.230;6.614;2023-04-28T08:07:27;19.65;;;8.20;;
31692;SDS011;37436;53.230;6.614;2023-04-28T08:10:01;19.17;;;8.15;;
31692;SDS011;37436;53.230;6.614;2023-04-28T08:12:54;14.48;;;7.75;;
31692;SDS011;37436;53.230;6.614;2023-04-28T08:15:23;18.08;;;8.63;;
31692;SDS011;37436;53.230;6.614;2023-04-28T08:18:00;24.00;;;8.15;;
31692;SDS011;37436;53.230;6.614;2023-04-28T08:20:26;19.38;;;7.95;;
31692;SDS011;37436;53.230;6.614;2023-04-28T08:22:57;19.05;;;8.80;;
31692;SDS011;37436;53.230;6.614;2023-04-28T08:25:25;17.27;;;8.93;;
31692;SDS011;37436;53.230;6.614;2023-04-28T08:27:53;20.20;;;9.52;;
31692;SDS011;37436;53.230;6.614;2023-04-28T08:30:32;22.55;;;9.57;;
31692;SDS011;37436;53.230;6.614;2023-04-28T08:33:20;19.00;;;9.75;;
31692;SDS011;37436;53.230;6.614;2023-04-28T08:36:05;17.85;;;8.38;;
31692;SDS011;37436;53.230;6.614;2023-04-28T08:38:32;18.55;;;8.35;;
31692;SDS011;37436;53.230;6.614;2023-04-28T08:40:59;17.17;;;8.63;;
31692;SDS011;37436;53.230;6.614;2023-04-28T08:43:28;16.55;;;9.23;;
31692;SDS011;37436;53.230;6.614;2023-04-28T08:45:55;15.15;;;8.60;;
31692;SDS011;37436;53.230;6.614;2023-04-28T08:48:33;20.48;;;8.93;;
31692;SDS011;37436;53.230;6.614;2023-04-28T08:51:04;23.33;;;8.75;;
31692;SDS011;37436;53.230;6.614;2023-04-28T08:53:34;14.63;;;8.23;;
31692;SDS011;37436;53.230;6.614;2023-04-28T08:56:05;16.17;;;8.30;;
31692;SDS011;37436;53.230;6.614;2023-04-28T08:58:38;16.50;;;8.93;;
31692;SDS011;37436;53.230;6.614;2023-04-28T09:01:08;16.58;;;8.73;;
31692;SDS011;37436;53.230;6.614;2023-04-28T09:03:35;16.95;;;9.13;;
31692;SDS011;37436;53.230;6.614;2023-04-28T09:06:01;20.40;;;8.70;;
31692;SDS011;37436;53.230;6.614;2023-04-28T09:08:27;15.45;;;8.60;;
31692;SDS011;37436;53.230;6.614;2023-04-28T09:11:22;16.52;;;9.27;;
31692;SDS011;37436;53.230;6.614;2023-04-28T09:17:10;19.20;;;9.93;;
31692;SDS011;37436;53.230;6.614;2023-04-28T09:25:35;16.67;;;8.93;;
31692;SDS011;37436;53.230;6.614;2023-04-28T09:28:20;17.00;;;9.00;;
31692;SDS011;37436;53.230;6.614;2023-04-28T09:34:12;19.50;;;8.43;;
31692;SDS011;37436;53.230;6.614;2023-04-28T09:37:21;16.52;;;8.45;;
31692;SDS011;37436;53.230;6.614;2023-04-28T09:43:21;17.20;;;8.27;;
31692;SDS011;37436;53.230;6.614;2023-04-28T09:45:51;16.57;;;8.73;;
31692;SDS011;37436;53.230;6.614;2023-04-28T09:51:19;13.30;;;7.78;;
31692;SDS011;37436;53.230;6.614;2023-04-28T09:53:48;15.25;;;7.57;;
31692;SDS011;37436;53.230;6.614;2023-04-28T09:56:56;17.25;;;8.02;;
31692;SDS011;37436;53.230;6.614;2023-04-28T09:59:32;14.25;;;7.82;;
31692;SDS011;37436;53.230;6.614;2023-04-28T10:17:38;13.73;;;8.07;;
31692;SDS011;37436;53.230;6.614;2023-04-28T10:20:14;14.20;;;8.17;;
31692;SDS011;37436;53.230;6.614;2023-04-28T10:22:46;18.38;;;8.45;;
31692;SDS011;37436;53.230;6.614;2023-04-28T10:25:22;16.30;;;8.48;;
31692;SDS011;37436;53.230;6.614;2023-04-28T10:27:50;15.18;;;8.35;;
31692;SDS011;37436;53.230;6.614;2023-04-28T10:30:18;16.90;;;8.35;;
31692;SDS011;37436;53.230;6.614;2023-04-28T10:32:45;18.00;;;7.95;;
31692;SDS011;37436;53.230;6.614;2023-04-28T10:52:51;13.52;;;8.35;;
31692;SDS011;37436;53.230;6.614;2023-04-28T11:00:48;14.27;;;8.80;;
31692;SDS011;37436;53.230;6.614;2023-04-28T11:15:28;19.80;;;9.50;;
31692;SDS011;37436;53.230;6.614;2023-04-28T11:17:57;15.88;;;9.80;;
31692;SDS011;37436;53.230;6.614;2023-04-28T11:20:38;17.92;;;10.70;;
31692;SDS011;37436;53.230;6.614;2023-04-28T11:23:07;22.70;;;10.00;;
31692;SDS011;37436;53.230;6.614;2023-04-28T11:25:52;24.85;;;10.52;;
31692;SDS011;37436;53.230;6.614;2023-04-28T11:28:18;20.35;;;10.07;;
31692;SDS011;37436;53.230;6.614;2023-04-28T11:31:13;19.30;;;10.80;;
31692;SDS011;37436;53.230;6.614;2023-04-28T11:37:25;20.33;;;10.63;;
31692;SDS011;37436;53.230;6.614;2023-04-28T11:56:29;21.08;;;10.98;;
31692;SDS011;37436;53.230;6.614;2023-04-28T11:59:05;22.55;;;11.48;;
31692;SDS011;37436;53.230;6.614;2023-04-28T12:11:59;19.27;;;11.27;;
31692;SDS011;37436;53.230;6.614;2023-04-28T12:17:47;21.23;;;11.20;;
31692;SDS011;37436;53.230;6.614;2023-04-28T12:20:38;24.20;;;12.05;;
31692;SDS011;37436;53.230;6.614;2023-04-28T12:23:06;26.02;;;11.27;;
31692;SDS011;37436;53.230;6.614;2023-04-28T12:28:57;20.60;;;11.88;;
31692;SDS011;37436;53.230;6.614;2023-04-28T12:31:28;20.27;;;10.13;;
31692;SDS011;37436;53.230;6.614;2023-04-28T12:40:05;27.17;;;12.45;;
31692;SDS011;37436;53.230;6.614;2023-04-28T12:42:35;21.80;;;11.82;;
31692;SDS011;37436;53.230;6.614;2023-04-28T12:45:05;24.25;;;11.43;;
31692;SDS011;37436;53.230;6.614;2023-04-28T12:47:39;24.63;;;12.02;;
31692;SDS011;37436;53.230;6.614;2023-04-28T12:50:07;24.23;;;12.52;;
31692;SDS011;37436;53.230;6.614;2023-04-28T12:52:34;19.88;;;11.98;;
31692;SDS011;37436;53.230;6.614;2023-04-28T12:55:21;20.48;;;12.05;;
31692;SDS011;37436;53.230;6.614;2023-04-28T12:58:07;17.55;;;10.93;;
31692;SDS011;37436;53.230;6.614;2023-04-28T13:00:38;19.05;;;12.27;;
31692;SDS011;37436;53.230;6.614;2023-04-28T13:03:43;22.83;;;12.60;;
31692;SDS011;37436;53.230;6.614;2023-04-28T13:06:20;23.63;;;11.93;;
31692;SDS011;37436;53.230;6.614;2023-04-28T13:08:52;20.92;;;11.93;;
31692;SDS011;37436;53.230;6.614;2023-04-28T13:13:52;22.23;;;11.88;;
31692;SDS011;37436;53.230;6.614;2023-04-28T13:16:24;21.20;;;11.27;;
31692;SDS011;37436;53.230;6.614;2023-04-28T13:19:13;24.38;;;11.73;;
31692;SDS011;37436;53.230;6.614;2023-04-28T13:21:40;24.75;;;13.00;;
31692;SDS011;37436;53.230;6.614;2023-04-28T13:42:43;19.92;;;12.43;;
31692;SDS011;37436;53.230;6.614;2023-04-28T13:45:17;27.85;;;13.13;;
31692;SDS011;37436;53.230;6.614;2023-04-28T13:47:48;27.17;;;13.00;;
31692;SDS011;37436;53.230;6.614;2023-04-28T13:50:30;20.85;;;13.55;;
31692;SDS011;37436;53.230;6.614;2023-04-28T13:53:09;27.40;;;11.82;;
31692;SDS011;37436;53.230;6.614;2023-04-28T13:55:57;19.67;;;11.60;;
31692;SDS011;37436;53.230;6.614;2023-04-28T13:58:28;22.35;;;12.80;;
31692;SDS011;37436;53.230;6.614;2023-04-28T14:01:01;23.85;;;11.63;;
31692;SDS011;37436;53.230;6.614;2023-04-28T14:03:34;24.50;;;13.60;;
31692;SDS011;37436;53.230;6.614;2023-04-28T14:06:08;22.60;;;13.35;;
31692;SDS011;37436;53.230;6.614;2023-04-28T14:08:37;23.75;;;12.55;;
31692;SDS011;37436;53.230;6.614;2023-04-28T14:11:03;29.88;;;13.35;;
31692;SDS011;37436;53.230;6.614;2023-04-28T14:13:30;25.33;;;13.85;;
31692;SDS011;37436;53.230;6.614;2023-04-28T14:16:02;25.65;;;14.70;;
31692;SDS011;37436;53.230;6.614;2023-04-28T14:18:31;28.73;;;13.68;;
31692;SDS011;37436;53.230;6.614;2023-04-28T14:21:01;27.90;;;14.15;;
31692;SDS011;37436;53.230;6.614;2023-04-28T14:23:35;26.85;;;14.38;;
31692;SDS011;37436;53.230;6.614;2023-04-28T14:32:12;24.80;;;14.45;;
31692;SDS011;37436;53.230;6.614;2023-04-28T14:37:42;28.55;;;15.25;;
31692;SDS011;37436;53.230;6.614;2023-04-28T14:40:17;25.60;;;15.27;;
31692;SDS011;37436;53.230;6.614;2023-04-28T14:42:43;27.17;;;16.55;;
31692;SDS011;37436;53.230;6.614;2023-04-28T14:50:41;32.50;;;17.02;;
31692;SDS011;37436;53.230;6.614;2023-04-28T14:53:33;39.20;;;17.23;;
31692;SDS011;37436;53.230;6.614;2023-04-28T14:56:20;35.40;;;16.75;;
31692;SDS011;37436;53.230;6.614;2023-04-28T14:59:06;36.53;;;16.92;;
31692;SDS011;37436;53.230;6.614;2023-04-28T15:01:56;39.42;;;17.65;;
31692;SDS011;37436;53.230;6.614;2023-04-28T15:04:27;32.63;;;17.50;;
31692;SDS011;37436;53.230;6.614;2023-04-28T15:06:58;32.33;;;17.67;;
31692;SDS011;37436;53.230;6.614;2023-04-28T15:09:32;37.20;;;17.25;;
31692;SDS011;37436;53.230;6.614;2023-04-28T15:15:12;37.53;;;18.13;;
31692;SDS011;37436;53.230;6.614;2023-04-28T15:20:47;32.13;;;18.88;;
31692;SDS011;37436;53.230;6.614;2023-04-28T15:26:02;32.63;;;18.33;;
31692;SDS011;37436;53.230;6.614;2023-04-28T15:28:29;35.10;;;19.75;;
31692;SDS011;37436;53.230;6.614;2023-04-28T15:30:55;36.28;;;17.30;;
31692;SDS011;37436;53.230;6.614;2023-04-28T15:33:21;35.13;;;19.00;;
31692;SDS011;37436;53.230;6.614;2023-04-28T15:35:48;41.47;;;20.02;;
31692;SDS011;37436;53.230;6.614;2023-04-28T15:38:14;38.70;;;18.00;;
31692;SDS011;37436;53.230;6.614;2023-04-28T15:40:41;28.27;;;16.38;;
31692;SDS011;37436;53.230;6.614;2023-04-28T15:43:08;34.92;;;18.55;;
31692;SDS011;37436;53.230;6.614;2023-04-28T15:45:34;41.00;;;18.40;;
31692;SDS011;37436;53.230;6.614;2023-04-28T15:48:01;31.17;;;16.92;;
31692;SDS011;37436;53.230;6.614;2023-04-28T15:50:35;27.58;;;16.50;;
31692;SDS011;37436;53.230;6.614;2023-04-28T15:53:02;35.92;;;17.13;;
31692;SDS011;37436;53.230;6.614;2023-04-28T15:55:34;31.38;;;17.85;;
31692;SDS011;37436;53.230;6.614;2023-04-28T15:58:01;40.15;;;17.70;;
31692;SDS011;37436;53.230;6.614;2023-04-28T16:00:28;38.47;;;18.35;;
31692;SDS011;37436;53.230;6.614;2023-04-28T16:02:55;31.67;;;17.10;;
31692;SDS011;37436;53.230;6.614;2023-04-28T16:05:21;33.95;;;18.48;;
31692;SDS011;37436;53.230;6.614;2023-04-28T16:07:48;38.40;;;18.10;;
31692;SDS011;37436;53.230;6.614;2023-04-28T16:10:17;33.80;;;18.52;;
31692;SDS011;37436;53.230;6.614;2023-04-28T16:12:43;35.17;;;18.73;;
31692;SDS011;37436;53.230;6.614;2023-04-28T16:15:09;28.00;;;16.02;;
31692;SDS011;37436;53.230;6.614;2023-04-28T16:17:36;39.38;;;20.13;;
31692;SDS011;37436;53.230;6.614;2023-04-28T16:20:06;37.42;;;19.83;;
31692;SDS011;37436;53.230;6.614;2023-04-28T16:22:36;36.90;;;19.08;;
31692;SDS011;37436;53.230;6.614;2023-04-28T16:25:02;37.85;;;17.77;;
31692;SDS011;37436;53.230;6.614;2023-04-28T16:27:29;31.15;;;18.38;;
31692;SDS011;37436;53.230;6.614;2023-04-28T16:29:56;35.00;;;19.35;;
31692;SDS011;37436;53.230;6.614;2023-04-28T16:32:22;38.35;;;18.98;;
31692;SDS011;37436;53.230;6.614;2023-04-28T16:34:49;40.30;;;18.88;;
31692;SDS011;37436;53.230;6.614;2023-04-28T16:37:16;37.90;;;19.70;;
31692;SDS011;37436;53.230;6.614;2023-04-28T16:39:45;34.05;;;18.98;;
31692;SDS011;37436;53.230;6.614;2023-04-28T16:42:11;36.95;;;19.85;;
31692;SDS011;37436;53.230;6.614;2023-04-28T16:44:37;36.00;;;19.10;;
31692;SDS011;37436;53.230;6.614;2023-04-28T16:47:03;33.90;;;18.63;;
31692;SDS011;37436;53.230;6.614;2023-04-28T16:49:30;34.65;;;18.63;;
31692;SDS011;37436;53.230;6.614;2023-04-28T16:52:04;37.22;;;18.52;;
31692;SDS011;37436;53.230;6.614;2023-04-28T16:54:33;35.92;;;19.00;;
31692;SDS011;37436;53.230;6.614;2023-04-28T16:57:06;37.30;;;18.92;;
31692;SDS011;37436;53.230;6.614;2023-04-28T16:59:36;39.58;;;19.75;;
31692;SDS011;37436;53.230;6.614;2023-04-28T17:02:03;35.30;;;18.77;;
31692;SDS011;37436;53.230;6.614;2023-04-28T17:04:32;32.67;;;17.73;;
31692;SDS011;37436;53.230;6.614;2023-04-28T17:06:59;37.67;;;18.48;;
31692;SDS011;37436;53.230;6.614;2023-04-28T17:09:28;36.17;;;19.35;;
31692;SDS011;37436;53.230;6.614;2023-04-28T17:11:59;34.83;;;18.40;;
31692;SDS011;37436;53.230;6.614;2023-04-28T17:14:27;40.40;;;19.20;;
31692;SDS011;37436;53.230;6.614;2023-04-28T17:16:53;30.55;;;19.02;;
31692;SDS011;37436;53.230;6.614;2023-04-28T17:19:20;39.83;;;20.00;;
31692;SDS011;37436;53.230;6.614;2023-04-28T17:21:47;36.33;;;19.95;;
31692;SDS011;37436;53.230;6.614;2023-04-28T17:24:16;37.03;;;18.88;;
31692;SDS011;37436;53.230;6.614;2023-04-28T17:26:45;37.22;;;20.35;;
31692;SDS011;37436;53.230;6.614;2023-04-28T17:29:18;36.08;;;19.35;;
31692;SDS011;37436;53.230;6.614;2023-04-28T17:31:46;47.38;;;22.27;;
31692;SDS011;37436;53.230;6.614;2023-04-28T17:34:14;37.40;;;21.02;;
31692;SDS011;37436;53.230;6.614;2023-04-28T17:36:40;41.78;;;21.45;;